| time (UTC) | temp F | wind direction | speed MPH | gust MPH | rain 1hr in | rain 24hr in | rain mn in | humidity % | barometer mb |
| 20260506165113 | 52 | 224 | 1.0 | 4.0 | 0.07 | 0.14 | 0.13 | 93 | 1009.5 |
| 20260506164113 | 52 | 185 | 1.0 | 4.0 | 0.06 | 0.13 | 0.12 | 92 | 1009.5 |
| 20260506163114 | 52 | 192 | 2.0 | 6.0 | 0.06 | 0.12 | 0.11 | 92 | 1009.5 |
| 20260506162113 | 52 | 221 | 2.0 | 10.0 | 0.06 | 0.10 | 0.09 | 91 | 1009.4 |
| 20260506161112 | 52 | 147 | 2.0 | 6.0 | 0.06 | 0.09 | 0.09 | 91 | 1009.4 |
| 20260506160112 | 52 | 120 | 2.0 | 5.0 | 0.06 | 0.09 | 0.08 | 90 | 1009.4 |
| 20260506155112 | 52 | 110 | 1.0 | 6.0 | 0.05 | 0.07 | 0.06 | 90 | 1009.3 |
| 20260506154112 | 52 | 222 | 2.0 | 6.0 | 0.04 | 0.06 | 0.06 | 89 | 1009.3 |
| 20260506153112 | 52 | 193 | 2.0 | 6.0 | 0.03 | 0.06 | 0.05 | 88 | 1009.2 |
| 20260506151112 | 53 | 167 | 2.0 | 8.0 | 0.01 | 0.03 | 0.02 | 84 | 1009.1 |
| 20260506150112 | 53 | 175 | 3.0 | 9.0 | 0.00 | 0.02 | 0.02 | 83 | 1009.0 |
| 20260506145112 | 53 | 121 | 2.0 | 8.0 | 0.00 | 0.02 | 0.02 | 84 | 1009.0 |
| 20260506143112 | 54 | 169 | 2.0 | 11.0 | 0.00 | 0.02 | 0.02 | 85 | 1009.0 |
| 20260506142111 | 54 | 248 | 3.0 | 10.0 | 0.01 | 0.02 | 0.02 | 85 | 1008.9 |
| 20260506141111 | 54 | 155 | 4.0 | 14.0 | 0.01 | 0.02 | 0.02 | 85 | 1008.9 |
| 20260506140111 | 54 | 277 | 3.0 | 9.0 | 0.01 | 0.02 | 0.02 | 86 | 1008.8 |
| 20260506135111 | 55 | 124 | 3.0 | 12.0 | 0.01 | 0.15 | 0.02 | 85 | 1008.8 |
| 20260506134111 | 55 | 232 | 3.0 | 9.0 | 0.01 | 0.15 | 0.02 | 86 | 1008.8 |
| 20260506133111 | 55 | 113 | 3.0 | 10.0 | 0.01 | 0.15 | 0.02 | 86 | 1008.7 |
| 20260506131111 | 55 | 223 | 4.0 | 13.0 | 0.01 | 0.14 | 0.01 | 84 | 1008.7 |
| 20260506130111 | 55 | 48 | 4.0 | 16.0 | 0.01 | 0.14 | 0.01 | 84 | 1008.5 |
| 20260506125111 | 56 | 238 | 5.0 | 16.0 | 0.01 | 0.14 | 0.01 | 85 | 1008.3 |
| 20260506123110 | 57 | 233 | 5.0 | 17.0 | 0.01 | 0.14 | 0.01 | 85 | 1008.0 |
| 20260506122110 | 57 | 230 | 6.0 | 13.0 | 0.00 | 0.13 | 0.00 | 86 | 1007.9 |
| 20260506121110 | 58 | 247 | 4.0 | 11.0 | 0.00 | 0.13 | 0.00 | 86 | 1007.8 |
| 20260506115110 | 58 | 259 | 2.0 | 9.0 | 0.00 | 0.13 | 0.00 | 86 | 1007.7 |
| 20260506114110 | 58 | 122 | 2.0 | 10.0 | 0.00 | 0.13 | 0.00 | 84 | 1007.7 |
| 20260506112110 | 58 | 264 | 3.0 | 10.0 | 0.00 | 0.13 | 0.00 | 83 | 1007.6 |
| 20260506111110 | 58 | 271 | 3.0 | 9.0 | 0.00 | 0.13 | 0.00 | 83 | 1007.5 |
| 20260506110110 | 59 | 293 | 3.0 | 12.0 | 0.00 | 0.13 | 0.00 | 81 | 1007.5 |
| 20260506105109 | 59 | 173 | 4.0 | 12.0 | 0.00 | 0.13 | 0.00 | 79 | 1007.6 |
| 20260506104109 | 59 | 184 | 2.0 | 8.0 | 0.00 | 0.13 | 0.00 | 78 | 1007.4 |
| 20260506103109 | 59 | 207 | 2.0 | 9.0 | 0.00 | 0.13 | 0.00 | 77 | 1007.3 |
| 20260506102109 | 59 | 326 | 2.0 | 10.0 | 0.00 | 0.13 | 0.00 | 77 | 1007.3 |
| 20260506101109 | 59 | 245 | 2.0 | 6.0 | 0.00 | 0.13 | 0.00 | 77 | 1007.3 |
| 20260506100109 | 59 | 252 | 1.0 | 6.0 | 0.00 | 0.13 | 0.00 | 77 | 1007.2 |
| 20260506095109 | 59 | 198 | 3.0 | 8.0 | 0.00 | 0.13 | 0.00 | 77 | 1007.2 |
| 20260506094109 | 59 | 203 | 2.0 | 8.0 | 0.00 | 0.13 | 0.00 | 76 | 1007.1 |
| 20260506093109 | 59 | 186 | 1.0 | 5.0 | 0.00 | 0.13 | 0.00 | 76 | 1007.1 |
| 20260506092109 | 60 | 235 | 1.0 | 4.0 | 0.00 | 0.13 | 0.00 | 75 | 1007.1 |
| 20260506090108 | 60 | 212 | 3.0 | 10.0 | 0.00 | 0.13 | 0.00 | 72 | 1007.0 |
| 20260506085108 | 62 | 219 | 2.0 | 5.0 | 0.00 | 0.13 | 0.00 | 71 | 1007.0 |
| 20260506084108 | 61 | 210 | 2.0 | 4.0 | 0.00 | 0.13 | 0.00 | 73 | 1006.9 |
| 20260506083108 | 61 | 200 | 2.0 | 6.0 | 0.00 | 0.13 | 0.00 | 73 | 1006.7 |
| 20260506082108 | 61 | 261 | 3.0 | 10.0 | 0.00 | 0.13 | 0.00 | 74 | 1006.8 |
| 20260506081108 | 60 | 191 | 2.0 | 8.0 | 0.00 | 0.13 | 0.00 | 76 | 1006.8 |
| 20260506080108 | 59 | 184 | 2.0 | 8.0 | 0.00 | 0.13 | 0.00 | 75 | 1006.9 |
| 20260506072112 | 58 | 243 | 3.0 | 9.0 | 0.00 | 0.13 | 0.00 | 76 | 1006.9 |
| 20260506071112 | 59 | 343 | 1.0 | 11.0 | 0.00 | 0.13 | 0.00 | 76 | 1006.8 |
| 20260506070112 | 59 | 144 | 2.0 | 6.0 | 0.00 | 0.13 | 0.00 | 76 | 1006.8 |
| 20260506062112 | 57 | 145 | 1.0 | 8.0 | 0.00 | 0.13 | 0.00 | 79 | 1007.0 |
| 20260506061112 | 56 | 230 | 1.0 | 4.0 | 0.00 | 0.13 | 0.00 | 82 | 1007.0 |
| 20260506060112 | 56 | 214 | 0.0 | 1.0 | 0.00 | 0.13 | 0.00 | 81 | 1007.0 |
| 20260506050111 | 54 | 277 | 0.0 | 2.0 | 0.00 | 0.13 | 0.00 | 85 | 1007.1 |
| 20260506045111 | 53 | 145 | 0.0 | 3.0 | 0.00 | 0.13 | 0.00 | 85 | 1007.2 |
| 20260506044116 | 53 | 109 | 0.0 | 3.0 | 0.00 | 0.13 | 0.00 | 85 | 1007.3 |
| 20260506042111 | 53 | 148 | 1.0 | 5.0 | 0.00 | 0.13 | 0.00 | 85 | 1007.3 |
| 20260506041111 | 53 | 207 | 1.0 | 6.0 | 0.00 | 0.13 | 0.00 | 85 | 1007.2 |
| 20260506040111 | 53 | 100 | 1.0 | 5.0 | 0.00 | 0.13 | 0.00 | 85 | 1007.3 |
| 20260506035110 | 53 | 169 | 1.0 | 4.0 | 0.00 | 0.13 | 0.00 | 85 | 1007.5 |
| 20260506034110 | 53 | 124 | 1.0 | 5.0 | 0.00 | 0.13 | 0.00 | 85 | 1007.6 |
| 20260506033110 | 53 | 198 | 1.0 | 6.0 | 0.00 | 0.13 | 0.00 | 85 | 1007.6 |
| 20260506032110 | 52 | 174 | 0.0 | 3.0 | 0.00 | 0.13 | 0.00 | 87 | 1007.6 |
| 20260506031110 | 52 | 225 | 1.0 | 3.0 | 0.00 | 0.13 | 0.00 | 88 | 1007.7 |
| 20260506025110 | 51 | 211 | 0.0 | 0.0 | 0.00 | 0.13 | 0.00 | 88 | 1007.7 |
| 20260506024110 | 51 | 211 | 0.0 | 0.0 | 0.00 | 0.13 | 0.00 | 87 | 1007.9 |
| 20260506023110 | 52 | 211 | 0.0 | 0.0 | 0.00 | 0.13 | 0.00 | 86 | 1007.9 |
| 20260506022110 | 53 | 208 | 0.0 | 0.0 | 0.00 | 0.13 | 0.00 | 86 | 1008.0 |
| 20260506021109 | 53 | 213 | 0.0 | 1.0 | 0.00 | 0.13 | 0.00 | 85 | 1008.1 |
| 20260506020109 | 53 | 139 | 0.0 | 2.0 | 0.00 | 0.13 | 0.00 | 84 | 1008.1 |
| 20260506015109 | 53 | 248 | 0.0 | 2.0 | 0.00 | 0.13 | 0.00 | 84 | 1008.2 |
| 20260506014109 | 53 | 229 | 0.0 | 1.0 | 0.00 | 0.13 | 0.00 | 85 | 1008.3 |
| 20260506013109 | 53 | 133 | 0.0 | 1.0 | 0.00 | 0.13 | 0.00 | 86 | 1008.5 |
| 20260506012109 | 53 | 226 | 0.0 | 2.0 | 0.00 | 0.13 | 0.00 | 87 | 1008.6 |
| 20260506011109 | 52 | 207 | 0.0 | 0.0 | 0.00 | 0.13 | 0.00 | 87 | 1008.6 |
| 20260506010109 | 52 | 141 | 0.0 | 1.0 | 0.00 | 0.13 | 0.00 | 87 | 1008.4 |
| 20260506005109 | 52 | 221 | 0.0 | 1.0 | 0.00 | 0.13 | 0.00 | 88 | 1008.5 |
| 20260506004109 | 52 | 133 | 0.0 | 2.0 | 0.00 | 0.13 | 0.00 | 88 | 1008.4 |
| 20260506003109 | 52 | 224 | 0.0 | 2.0 | 0.00 | 0.13 | 0.00 | 89 | 1008.5 |
| 20260506002108 | 52 | 235 | 0.0 | 1.0 | 0.00 | 0.13 | 0.00 | 88 | 1008.6 |
| 20260506001108 | 53 | 251 | 0.0 | 1.0 | 0.00 | 0.13 | 0.00 | 87 | 1008.7 |
| 20260505235113 | 53 | 225 | 0.0 | 1.0 | 0.00 | 0.13 | 0.00 | 86 | 1008.9 |
| 20260505234113 | 53 | 257 | 0.0 | 4.0 | 0.00 | 0.13 | 0.00 | 86 | 1009.0 |
| 20260505233113 | 54 | 228 | 0.0 | 4.0 | 0.00 | 0.13 | 0.00 | 85 | 1009.1 |
| 20260505232113 | 53 | 242 | 0.0 | 1.0 | 0.00 | 0.13 | 0.00 | 86 | 1009.1 |
| 20260505231113 | 53 | 245 | 0.0 | 0.0 | 0.00 | 0.13 | 0.00 | 86 | 1009.1 |
| 20260505230113 | 54 | 245 | 0.0 | 2.0 | 0.00 | 0.13 | 0.00 | 85 | 1009.1 |
| 20260505225113 | 54 | 128 | 0.0 | 1.0 | 0.00 | 0.13 | 0.00 | 85 | 1009.1 |
| 20260505224113 | 54 | 252 | 0.0 | 1.0 | 0.00 | 0.13 | 0.00 | 85 | 1009.2 |
| 20260505223112 | 54 | 142 | 0.0 | 1.0 | 0.00 | 0.13 | 0.00 | 85 | 1009.3 |
| 20260505222112 | 54 | 131 | 0.0 | 3.0 | 0.00 | 0.13 | 0.00 | 86 | 1009.3 |
| 20260505221112 | 54 | 97 | 0.0 | 1.0 | 0.00 | 0.13 | 0.00 | 86 | 1009.4 |
| 20260505220112 | 54 | 237 | 0.0 | 1.0 | 0.00 | 0.13 | 0.00 | 86 | 1009.4 |
| 20260505215112 | 54 | 239 | 0.0 | 1.0 | 0.00 | 0.13 | 0.13 | 86 | 1009.4 |
| 20260505214112 | 54 | 176 | 0.0 | 2.0 | 0.00 | 0.13 | 0.13 | 86 | 1009.3 |
| 20260505213112 | 54 | 264 | 0.0 | 1.0 | 0.00 | 0.13 | 0.13 | 86 | 1009.3 |
| 20260505212112 | 54 | 236 | 0.0 | 0.0 | 0.00 | 0.13 | 0.13 | 86 | 1009.4 |
| 20260505211112 | 55 | 167 | 0.0 | 2.0 | 0.00 | 0.13 | 0.13 | 86 | 1009.5 |
| 20260505210111 | 55 | 124 | 0.0 | 2.0 | 0.00 | 0.13 | 0.13 | 86 | 1009.4 |
| 20260505205111 | 55 | 145 | 0.0 | 3.0 | 0.00 | 0.13 | 0.13 | 86 | 1009.5 |
| 20260505204112 | 56 | 162 | 0.0 | 1.0 | 0.00 | 0.13 | 0.13 | 86 | 1009.5 |
| 20260505203111 | 56 | 233 | 0.0 | 4.0 | 0.00 | 0.13 | 0.13 | 86 | 1009.5 |
| 20260505202111 | 56 | 218 | 0.0 | 1.0 | 0.00 | 0.13 | 0.13 | 86 | 1009.3 |
| 20260505200111 | 56 | 129 | 0.0 | 4.0 | 0.00 | 0.13 | 0.13 | 88 | 1009.2 |
| 20260505195111 | 56 | 221 | 0.0 | 1.0 | 0.00 | 0.13 | 0.13 | 88 | 1009.2 |
| 20260505194111 | 56 | 277 | 0.0 | 3.0 | 0.00 | 0.13 | 0.13 | 87 | 1009.1 |
| 20260505193111 | 57 | 240 | 0.0 | 2.0 | 0.00 | 0.13 | 0.13 | 87 | 1009.0 |
| 20260505192111 | 57 | 216 | 0.0 | 2.0 | 0.00 | 0.13 | 0.13 | 85 | 1008.9 |
| 20260505191110 | 57 | 184 | 0.0 | 2.0 | 0.00 | 0.13 | 0.13 | 84 | 1008.8 |
| 20260505190110 | 58 | 108 | 1.0 | 4.0 | 0.00 | 0.13 | 0.13 | 84 | 1008.8 |
| 20260505185110 | 58 | 160 | 0.0 | 4.0 | 0.01 | 0.13 | 0.13 | 84 | 1008.7 |
| 20260505184110 | 58 | 141 | 1.0 | 5.0 | 0.01 | 0.13 | 0.13 | 83 | 1008.5 |
| 20260505183110 | 59 | 217 | 0.0 | 4.0 | 0.01 | 0.13 | 0.13 | 84 | 1008.4 |
| 20260505182110 | 59 | 137 | 1.0 | 4.0 | 0.01 | 0.13 | 0.13 | 84 | 1008.4 |
| 20260505181110 | 60 | 129 | 1.0 | 6.0 | 0.01 | 0.13 | 0.13 | 84 | 1008.5 |
| 20260505180110 | 61 | 231 | 2.0 | 9.0 | 0.01 | 0.13 | 0.13 | 82 | 1008.5 |
| 20260505175110 | 62 | 203 | 2.0 | 6.0 | 0.00 | 0.13 | 0.13 | 79 | 1008.3 |
| 20260505173110 | 63 | 231 | 1.0 | 5.0 | 0.00 | 0.13 | 0.13 | 75 | 1008.2 |
| 20260505172110 | 64 | 265 | 1.0 | 6.0 | 0.00 | 0.13 | 0.13 | 73 | 1008.1 |
| 20260505171110 | 64 | 268 | 3.0 | 9.0 | 0.00 | 0.13 | 0.13 | 70 | 1008.1 |